createdAt,value
2018-06-27T00:00:28.899Z,1057.12
2018-06-27T00:01:28.932Z,1056.99
2018-06-27T00:05:58.410Z,1057.42
2018-06-27T00:06:58.426Z,1057.43
2018-06-27T00:07:58.401Z,1057.5
2018-06-27T00:08:58.412Z,1057.7
2018-06-27T00:09:58.420Z,1057.63
2018-06-27T00:10:58.449Z,1057.45
2018-06-27T00:11:58.405Z,1057.56
2018-06-27T00:16:27.983Z,1058.24
2018-06-27T00:17:27.968Z,1058.28
2018-06-27T00:18:27.969Z,1058.62
2018-06-27T00:19:27.964Z,1058.74
2018-06-27T00:20:27.946Z,1058.8
2018-06-27T00:21:27.947Z,1058.98
2018-06-27T00:22:27.945Z,1059.07
2018-06-27T00:23:28.012Z,1058.96
2018-06-27T00:24:27.946Z,1058.95
2018-06-27T00:25:27.959Z,1058.96
2018-06-27T00:26:27.982Z,1059.21
2018-06-27T00:27:27.952Z,1059.31
2018-06-27T00:28:27.949Z,1059.3
2018-06-27T00:29:27.951Z,1059.16
2018-06-27T00:30:27.957Z,1059.55
2018-06-27T00:31:27.979Z,1059.18
2018-06-27T00:32:27.970Z,1059.19
2018-06-27T00:33:27.960Z,1059.1
2018-06-27T00:34:27.967Z,1059.33
2018-06-27T00:35:27.967Z,1059.11
2018-06-27T00:36:27.970Z,1059.12
2018-06-27T00:37:27.977Z,1059.26
2018-06-27T00:38:27.960Z,1059.04
2018-06-27T00:39:28.016Z,1059.05
2018-06-27T00:40:27.974Z,1059.04
2018-06-27T00:41:28.015Z,1059.17
2018-06-27T00:42:27.997Z,1059.2
2018-06-27T00:43:27.977Z,1059.33
2018-06-27T00:44:27.986Z,1059.12
2018-06-27T00:45:27.980Z,1059.04
2018-06-27T00:46:27.994Z,1059.13
2018-06-27T00:47:27.997Z,1059.07
2018-06-27T00:48:28.007Z,1059.02
2018-06-27T00:50:46.733Z,1059.13
2018-06-27T00:51:46.711Z,1058.99
2018-06-27T00:52:46.747Z,1058.96
2018-06-27T00:53:46.719Z,1059.13
2018-06-27T00:54:46.727Z,1059.12
2018-06-27T00:55:46.714Z,1059.33
2018-06-27T00:56:46.720Z,1059.31
2018-06-27T00:57:46.717Z,1059.23
2018-06-27T00:58:46.721Z,1059.25
2018-06-27T00:59:46.734Z,1059.28
2018-06-27T01:00:46.722Z,1059.12
2018-06-27T01:01:46.746Z,1059.12
2018-06-27T01:02:46.736Z,1059.37
2018-06-27T01:03:46.768Z,1059.09
2018-06-27T01:04:46.746Z,1059.32
2018-06-27T01:05:46.754Z,1059.26
2018-06-27T01:06:46.752Z,1059.17
2018-06-27T01:07:46.736Z,1059.08
2018-06-27T01:08:46.752Z,1058.97
2018-06-27T01:09:46.773Z,1059.04
2018-06-27T01:10:46.762Z,1059.03
2018-06-27T01:11:46.766Z,1059.09
2018-06-27T01:12:46.743Z,1058.89
2018-06-27T01:13:46.747Z,1059
2018-06-27T01:14:46.783Z,1059.05
2018-06-27T01:15:46.771Z,1059.16
2018-06-27T01:16:46.771Z,1059.2
2018-06-27T01:17:46.754Z,1059.3
2018-06-27T01:18:46.789Z,1059.18
2018-06-27T01:19:46.765Z,1059.33
2018-06-27T01:20:46.766Z,1059.2
2018-06-27T01:21:46.756Z,1059.39
2018-06-27T01:22:46.766Z,1059.48
2018-06-27T01:23:46.777Z,1059.62
2018-06-27T01:24:46.770Z,1059.51
2018-06-27T01:25:46.801Z,1059.67
2018-06-27T01:26:46.777Z,1059.69
2018-06-27T01:27:46.788Z,1059.82
2018-06-27T01:28:46.775Z,1060.08
2018-06-27T01:29:46.774Z,1059.97
2018-06-27T01:30:46.790Z,1060.13
2018-06-27T01:35:15.875Z,1060.6
2018-06-27T01:36:15.873Z,1060.85
2018-06-27T01:37:15.854Z,1061.07
2018-06-27T01:38:15.870Z,1060.86
2018-06-27T01:39:15.891Z,1060.76
2018-06-27T01:40:15.870Z,1060.82
2018-06-27T01:41:15.882Z,1060.66
2018-06-27T01:42:15.868Z,1060.57
2018-06-27T01:43:15.873Z,1060.61
2018-06-27T01:44:15.874Z,1060.41
2018-06-27T01:45:15.878Z,1060.33
2018-06-27T01:46:15.894Z,1060.25
2018-06-27T01:47:15.918Z,1060.18
2018-06-27T01:48:15.901Z,1060.22
2018-06-27T01:49:15.888Z,1060.11
2018-06-27T01:50:15.896Z,1060.09
2018-06-27T01:51:15.899Z,1059.94
2018-06-27T01:52:15.902Z,1059.86
2018-06-27T01:53:15.906Z,1059.94
2018-06-27T01:54:15.892Z,1059.97
2018-06-27T01:55:15.894Z,1059.87
2018-06-27T01:56:15.904Z,1059.95
2018-06-27T01:57:15.908Z,1059.82
2018-06-27T01:58:15.940Z,1060.44
2018-06-27T01:59:15.920Z,1060.18
2018-06-27T02:00:15.924Z,1060.08
2018-06-27T02:01:15.905Z,1059.94
2018-06-27T02:02:15.957Z,1060.05
2018-06-27T02:03:15.904Z,1060.1
2018-06-27T02:04:15.906Z,1059.75
2018-06-27T02:05:15.934Z,1059.83
2018-06-27T02:06:15.918Z,1059.79
2018-06-27T02:07:15.921Z,1059.79
2018-06-27T02:08:15.930Z,1059.93
2018-06-27T02:09:15.914Z,1059.76
2018-06-27T02:10:15.918Z,1059.98
2018-06-27T02:11:15.920Z,1059.9
2018-06-27T02:12:15.950Z,1059.87
2018-06-27T02:13:15.960Z,1059.81
2018-06-27T02:14:15.923Z,1059.93
2018-06-27T02:15:15.925Z,1059.98
2018-06-27T02:16:15.930Z,1060.06
2018-06-27T02:17:15.937Z,1059.88
2018-06-27T02:18:15.943Z,1060.18
2018-06-27T02:19:15.965Z,1060.01
2018-06-27T02:20:15.930Z,1059.84
2018-06-27T02:21:15.936Z,1059.84
2018-06-27T02:22:15.940Z,1060.02
2018-06-27T02:23:15.951Z,1060.03
2018-06-27T02:24:15.931Z,1059.85
2018-06-27T02:25:15.968Z,1059.91
2018-06-27T02:26:15.971Z,1059.96
2018-06-27T02:27:15.957Z,1059.87
2018-06-27T02:28:15.956Z,1059.94
2018-06-27T02:29:15.966Z,1059.97
2018-06-27T02:30:15.959Z,1059.96
2018-06-27T02:31:15.955Z,1060.05
2018-06-27T02:32:15.962Z,1060.08
2018-06-27T02:33:15.993Z,1060.29
2018-06-27T02:34:16.076Z,1060.14
2018-06-27T02:35:16.057Z,1059.96
2018-06-27T02:36:15.966Z,1060.13
2018-06-27T02:37:15.970Z,1060.17
2018-06-27T02:38:15.970Z,1059.96
2018-06-27T02:39:15.984Z,1060.14
2018-06-27T02:40:16.006Z,1060.15
2018-06-27T02:41:15.974Z,1060.07
2018-06-27T02:42:15.972Z,1059.91
2018-06-27T02:43:15.983Z,1059.81
2018-06-27T02:44:15.983Z,1059.95
2018-06-27T02:45:16.003Z,1059.89
2018-06-27T02:46:16.023Z,1059.83
2018-06-27T02:47:15.989Z,1060.07
2018-06-27T02:48:15.993Z,1059.81
2018-06-27T02:49:15.998Z,1059.87
2018-06-27T02:50:15.980Z,1059.65
2018-06-27T02:51:15.986Z,1059.79
2018-06-27T02:52:16.022Z,1059.9
2018-06-27T02:53:16.017Z,1059.79
2018-06-27T02:54:16.010Z,1059.76
2018-06-27T02:55:16.018Z,1059.72
2018-06-27T02:56:16.033Z,1059.91
2018-06-27T02:57:16.007Z,1059.83
2018-06-27T02:58:16.023Z,1059.87
2018-06-27T02:59:16.016Z,1059.89
2018-06-27T03:00:16.018Z,1059.89
2018-06-27T03:01:16.025Z,1059.94
2018-06-27T03:02:16.030Z,1060.11
2018-06-27T03:03:16.015Z,1059.7
2018-06-27T03:04:16.040Z,1059.92
2018-06-27T03:05:16.012Z,1059.81
2018-06-27T03:06:16.020Z,1060.01
2018-06-27T03:07:16.037Z,1059.98
2018-06-27T03:08:16.022Z,1059.95
2018-06-27T03:09:16.032Z,1060.01
2018-06-27T03:10:16.076Z,1059.8
2018-06-27T03:11:16.034Z,1059.97
2018-06-27T03:12:16.041Z,1060.01
2018-06-27T03:13:16.071Z,1059.97
2018-06-27T03:14:16.043Z,1060.2
2018-06-27T03:15:16.054Z,1060.34
2018-06-27T03:16:16.044Z,1060.02
2018-06-27T03:17:16.041Z,1060.07
2018-06-27T03:18:16.060Z,1060.06
2018-06-27T03:19:16.062Z,1059.95
2018-06-27T03:20:16.067Z,1059.9
2018-06-27T03:21:16.047Z,1060.01
2018-06-27T03:22:16.052Z,1059.99
2018-06-27T03:23:16.161Z,1059.93
2018-06-27T03:24:16.046Z,1059.99
2018-06-27T03:25:16.046Z,1059.98
2018-06-27T03:26:16.065Z,1060.31
2018-06-27T03:27:16.086Z,1060.18
2018-06-27T03:28:16.073Z,1060.1
2018-06-27T03:29:16.128Z,1060.15
2018-06-27T03:30:16.057Z,1059.92
2018-06-27T03:31:16.068Z,1060.16
2018-06-27T03:32:16.068Z,1060.21
2018-06-27T03:33:16.079Z,1060.21
2018-06-27T03:34:16.092Z,1060.25
2018-06-27T03:35:16.084Z,1059.99
2018-06-27T03:36:16.079Z,1060.3
2018-06-27T03:37:16.076Z,1060.17
2018-06-27T03:38:16.141Z,1060.31
2018-06-27T03:39:16.102Z,1060.35
2018-06-27T03:40:16.093Z,1060.18
2018-06-27T03:41:16.083Z,1060.51
2018-06-27T03:42:16.083Z,1060.44
2018-06-27T03:43:16.090Z,1060.41
2018-06-27T03:44:16.098Z,1060.41
2018-06-27T03:45:16.106Z,1060.37
2018-06-27T03:46:16.117Z,1060.32
2018-06-27T03:47:16.100Z,1060.68
2018-06-27T03:48:16.149Z,1060.46
2018-06-27T03:49:16.104Z,1060.5
2018-06-27T03:50:16.111Z,1060.5
2018-06-27T03:51:16.113Z,1060.46
2018-06-27T03:52:16.098Z,1060.48
2018-06-27T03:53:16.109Z,1060.46
2018-06-27T03:54:16.112Z,1060.26
2018-06-27T03:55:16.113Z,1060.38
2018-06-27T03:56:16.141Z,1060.44
2018-06-27T03:57:16.107Z,1060.34
2018-06-27T03:58:16.131Z,1060.11
2018-06-27T03:59:16.113Z,1060.26
2018-06-27T04:00:16.130Z,1060.41
2018-06-27T04:01:16.177Z,1060.49
2018-06-27T04:02:16.123Z,1060.34
2018-06-27T04:03:16.118Z,1060.35
2018-06-27T04:04:16.145Z,1060.14
2018-06-27T04:05:16.155Z,1060.46
2018-06-27T04:06:16.134Z,1060.45
2018-06-27T04:07:16.121Z,1060.51
2018-06-27T04:08:16.146Z,1060.52
2018-06-27T04:09:16.123Z,1060.62
2018-06-27T04:10:16.164Z,1060.4
2018-06-27T04:11:16.522Z,1060.63
2018-06-27T04:12:16.125Z,1060.84
2018-06-27T04:13:16.177Z,1060.75
2018-06-27T04:14:16.144Z,1060.63
2018-06-27T04:15:16.146Z,1060.62
2018-06-27T04:16:16.153Z,1060.61
2018-06-27T04:17:16.158Z,1060.57
2018-06-27T04:18:16.137Z,1060.69
2018-06-27T04:19:16.167Z,1060.56
2018-06-27T04:20:16.217Z,1060.66
2018-06-27T04:27:43.445Z,1060.55
2018-06-27T04:27:54.909Z,1060.8
2018-06-27T04:28:54.921Z,1060.64
2018-06-27T04:29:54.911Z,1060.56
2018-06-27T04:30:54.898Z,1060.38
2018-06-27T04:31:54.909Z,1060.66
2018-06-27T04:32:54.919Z,1060.46
2018-06-27T04:33:54.903Z,1060.67
2018-06-27T04:34:54.899Z,1060.52
2018-06-27T04:37:13.500Z,1060.14
2018-06-27T04:38:13.507Z,1060.16
2018-06-27T04:39:13.464Z,1060.36
2018-06-27T04:40:13.468Z,1060.12
2018-06-27T04:41:13.527Z,1060.21
2018-06-27T04:42:13.459Z,1059.86
2018-06-27T04:43:13.626Z,1060.12
2018-06-27T04:44:13.471Z,1060.12
2018-06-27T04:45:13.501Z,1060.01
2018-06-27T04:46:13.482Z,1059.83
2018-06-27T04:47:13.496Z,1060.03
2018-06-27T04:48:13.498Z,1059.98
2018-06-27T04:49:13.473Z,1060.05
2018-06-27T04:50:13.488Z,1059.97
2018-06-27T04:51:13.497Z,1060.12
2018-06-27T04:52:13.497Z,1060.39
2018-06-27T04:53:13.501Z,1059.91
2018-06-27T04:54:13.508Z,1060.04
2018-06-27T04:55:13.487Z,1059.95
2018-06-27T04:56:13.493Z,1060.11
2018-06-27T04:57:13.500Z,1059.9
2018-06-27T04:58:13.536Z,1059.94
2018-06-27T04:59:13.515Z,1059.87
2018-06-27T05:00:13.497Z,1059.79
2018-06-27T05:01:13.509Z,1059.52
2018-06-27T05:02:13.516Z,1059.36
2018-06-27T05:03:13.518Z,1059.1
2018-06-27T05:04:13.549Z,1058.88
2018-06-27T05:05:13.521Z,1058.72
2018-06-27T05:06:13.518Z,1058.64
2018-06-27T05:07:13.556Z,1058.45
2018-06-27T05:08:13.525Z,1058.57
2018-06-27T05:09:13.531Z,1058.2
2018-06-27T05:10:13.564Z,1058.25
2018-06-27T05:11:13.519Z,1058.38
2018-06-27T05:12:13.544Z,1058.77
2018-06-27T05:13:13.525Z,1059.28
2018-06-27T05:14:13.544Z,1059.55
2018-06-27T05:15:13.519Z,1059.65
2018-06-27T05:16:13.554Z,1059.92
2018-06-27T05:17:13.536Z,1059.83
2018-06-27T05:18:13.556Z,1060.18
2018-06-27T05:19:13.543Z,1060.72
2018-06-27T05:20:13.545Z,1061.39
2018-06-27T05:21:13.576Z,1061.91
2018-06-27T05:22:13.567Z,1062.8
2018-06-27T05:23:13.545Z,1063.7
2018-06-27T05:24:13.562Z,1064.53
2018-06-27T05:25:13.564Z,1065.87
2018-06-27T05:26:13.565Z,1066.74
2018-06-27T05:27:13.616Z,1067.65
2018-06-27T05:28:13.567Z,1068.19
2018-06-27T05:29:13.560Z,1068.56
2018-06-27T05:30:13.566Z,1068.51
2018-06-27T05:31:13.574Z,1068.48
2018-06-27T05:32:13.599Z,1068.1
2018-06-27T05:33:13.560Z,1067.81
2018-06-27T05:34:13.593Z,1067.95
2018-06-27T05:35:13.566Z,1068.26
2018-06-27T05:36:13.553Z,1068.65
2018-06-27T05:37:13.561Z,1068.79
2018-06-27T05:38:13.585Z,1069.08
2018-06-27T05:39:13.579Z,1069.11
2018-06-27T05:40:13.582Z,1068.96
2018-06-27T05:41:13.610Z,1069.03
2018-06-27T05:42:13.568Z,1068.53
2018-06-27T05:43:13.612Z,1067.94
2018-06-27T05:47:42.531Z,1067.7
2018-06-27T05:48:42.554Z,1067.9
2018-06-27T05:49:42.522Z,1068.05
2018-06-27T05:50:42.519Z,1068.47
2018-06-27T05:51:42.621Z,1069.58
2018-06-27T05:52:42.528Z,1070.7
2018-06-27T05:53:42.553Z,1071.53
2018-06-27T05:54:42.564Z,1072.69
2018-06-27T05:55:42.565Z,1074.03
2018-06-27T05:56:42.594Z,1075.09
2018-06-27T05:57:42.544Z,1075.81
2018-06-27T05:58:42.542Z,1076.24
2018-06-27T05:59:42.558Z,1076.02
2018-06-27T06:00:42.543Z,1075.91
2018-06-27T06:01:42.559Z,1076
2018-06-27T06:02:42.555Z,1076.24
2018-06-27T06:03:42.557Z,1076.76
2018-06-27T06:04:42.602Z,1077.03
2018-06-27T06:05:42.559Z,1077.24
2018-06-27T06:06:42.556Z,1077.9
2018-06-27T06:07:42.553Z,1078
2018-06-27T06:08:42.607Z,1078.2
2018-06-27T06:09:42.579Z,1078.33
2018-06-27T06:10:42.603Z,1078.97
2018-06-27T06:11:42.563Z,1078.89
2018-06-27T06:12:42.563Z,1078.79
2018-06-27T06:13:42.604Z,1078.65
2018-06-27T06:14:42.577Z,1078.12
2018-06-27T06:15:43.220Z,1077.74
2018-06-27T06:16:42.581Z,1077.7
2018-06-27T06:17:42.592Z,1077.71
2018-06-27T06:18:42.608Z,1077.83
2018-06-27T06:19:42.626Z,1077.83
2018-06-27T06:20:42.581Z,1078.23
2018-06-27T06:21:42.595Z,1078.74
2018-06-27T06:22:42.573Z,1079.04
2018-06-27T06:23:42.596Z,1079.43
2018-06-27T06:24:42.659Z,1079.8
2018-06-27T06:25:42.614Z,1080.16
2018-06-27T06:26:42.604Z,1079.86
2018-06-27T06:27:42.637Z,1079.88
2018-06-27T06:28:42.665Z,1079.4
2018-06-27T06:29:42.649Z,1079.04
2018-06-27T06:30:42.621Z,1078.65
2018-06-27T06:31:42.607Z,1077.93
2018-06-27T06:32:42.615Z,1077.85
2018-06-27T06:33:42.590Z,1077.81
2018-06-27T06:34:42.598Z,1077.92
2018-06-27T06:35:42.605Z,1078.28
2018-06-27T06:36:42.634Z,1077.93
2018-06-27T06:37:42.598Z,1078.16
2018-06-27T06:38:42.606Z,1078.17
2018-06-27T06:39:42.607Z,1078.05
2018-06-27T06:40:42.669Z,1078.19
2018-06-27T06:41:42.617Z,1078.53
2018-06-27T06:42:42.621Z,1078.94
2018-06-27T06:43:42.643Z,1078.96
2018-06-27T06:44:42.648Z,1079.23
2018-06-27T06:45:42.627Z,1079.39
2018-06-27T06:46:42.634Z,1079.65
2018-06-27T06:47:42.629Z,1079.54
2018-06-27T06:48:42.649Z,1079.26
2018-06-27T06:49:42.674Z,1079.17
2018-06-27T06:50:42.651Z,1078.9
2018-06-27T06:51:42.646Z,1078.63
2018-06-27T06:52:42.666Z,1078.3
2018-06-27T06:53:42.659Z,1077.89
2018-06-27T06:54:42.663Z,1077.47
2018-06-27T06:55:42.652Z,1076.96
2018-06-27T06:56:42.668Z,1077.06
2018-06-27T06:57:42.646Z,1077.11
2018-06-27T06:58:42.665Z,1077.3
2018-06-27T06:59:42.640Z,1077.67
2018-06-27T07:00:42.678Z,1077.81
2018-06-27T07:01:42.653Z,1077.93
2018-06-27T07:02:42.661Z,1078.24
2018-06-27T07:03:42.674Z,1078.59
2018-06-27T07:04:42.665Z,1078.66
2018-06-27T07:05:42.654Z,1078.46
2018-06-27T07:06:42.654Z,1078.28
2018-06-27T07:07:42.671Z,1077.92
2018-06-27T07:08:42.677Z,1077.71
2018-06-27T07:09:42.709Z,1077.65
2018-06-27T07:10:42.682Z,1077.51
2018-06-27T07:11:42.679Z,1077.68
2018-06-27T07:12:42.689Z,1077.77
2018-06-27T07:13:42.682Z,1077.51
2018-06-27T07:14:42.730Z,1077.35
2018-06-27T07:15:42.695Z,1077.15
2018-06-27T07:16:42.680Z,1077.56
2018-06-27T07:17:42.704Z,1077.45
2018-06-27T07:18:42.683Z,1077.51
2018-06-27T07:19:42.687Z,1077.54
2018-06-27T07:20:42.693Z,1077.66
2018-06-27T07:21:42.685Z,1077.55
2018-06-27T07:22:42.688Z,1077.68
2018-06-27T07:23:42.747Z,1077.69
2018-06-27T07:24:42.704Z,1077.95
2018-06-27T07:25:42.739Z,1078.15
2018-06-27T07:26:42.686Z,1078.22
2018-06-27T07:27:42.698Z,1078.44
2018-06-27T07:28:42.748Z,1078.42
2018-06-27T07:29:42.727Z,1078.59
2018-06-27T07:30:42.738Z,1078.8
2018-06-27T07:31:42.743Z,1078.67
2018-06-27T07:32:42.720Z,1078.82
2018-06-27T07:33:42.737Z,1078.95
2018-06-27T07:34:42.750Z,1079.19
2018-06-27T07:35:42.725Z,1079.41
2018-06-27T07:36:42.721Z,1079.16
2018-06-27T07:37:42.729Z,1079.13
2018-06-27T07:38:42.749Z,1078.93
2018-06-27T07:39:42.727Z,1078.89
2018-06-27T07:40:42.757Z,1078.75
2018-06-27T07:41:42.730Z,1078.7
2018-06-27T07:42:42.722Z,1078.31
2018-06-27T07:43:42.748Z,1078.06
2018-06-27T07:44:42.750Z,1078.12
2018-06-27T07:45:42.732Z,1077.92
2018-06-27T07:46:42.737Z,1078.09
2018-06-27T07:47:42.726Z,1078.15
2018-06-27T07:48:42.759Z,1078.31
2018-06-27T07:49:42.823Z,1078.1
2018-06-27T07:50:42.764Z,1078.53
2018-06-27T07:51:42.746Z,1078.53
2018-06-27T07:52:43.073Z,1078.81
2018-06-27T07:53:42.741Z,1078.84
2018-06-27T07:54:42.765Z,1078.7
2018-06-27T07:55:42.798Z,1078.72
2018-06-27T07:56:42.755Z,1078.89
2018-06-27T07:57:42.744Z,1078.87
2018-06-27T07:58:42.782Z,1079.09
2018-06-27T07:59:42.752Z,1078.96
2018-06-27T08:00:42.755Z,1079.19
2018-06-27T08:01:42.757Z,1078.85
2018-06-27T08:02:42.764Z,1078.49
2018-06-27T08:03:42.807Z,1078.12
2018-06-27T08:04:42.777Z,1077.93
2018-06-27T08:05:42.772Z,1077.73
2018-06-27T08:06:42.764Z,1077.53
2018-06-27T08:07:42.802Z,1077.45
2018-06-27T08:08:42.823Z,1077.32
2018-06-27T08:09:42.844Z,1076.48
2018-06-27T08:10:42.776Z,1076.13
2018-06-27T08:11:42.770Z,1075.67
2018-06-27T08:12:42.883Z,1075.25
2018-06-27T08:13:42.773Z,1074.95
2018-06-27T08:14:42.799Z,1074.69
2018-06-27T08:15:42.795Z,1074.14
2018-06-27T08:16:42.778Z,1073.64
2018-06-27T08:17:42.876Z,1073.29
2018-06-27T08:18:42.819Z,1073.11
2018-06-27T08:19:42.780Z,1072.68
2018-06-27T08:20:42.807Z,1072.6
2018-06-27T08:21:42.800Z,1072.49
2018-06-27T08:22:42.805Z,1072.31
2018-06-27T08:23:42.811Z,1072.16
2018-06-27T08:24:42.826Z,1072.02
2018-06-27T08:25:42.840Z,1071.7
2018-06-27T08:26:42.804Z,1071.56
2018-06-27T08:27:42.813Z,1071.46
2018-06-27T08:34:23.261Z,1070.11
2018-06-27T08:35:23.242Z,1070.01
2018-06-27T08:36:23.258Z,1069.76
2018-06-27T08:37:23.242Z,1069.9
2018-06-27T08:38:23.260Z,1069.82
2018-06-27T08:39:23.276Z,1069.88
2018-06-27T08:40:23.260Z,1070.12
2018-06-27T08:41:23.253Z,1070.28
2018-06-27T08:42:23.265Z,1070.05
2018-06-27T08:43:23.267Z,1069.91
2018-06-27T08:44:23.265Z,1069.66
2018-06-27T08:45:23.256Z,1069.59
2018-06-27T08:46:23.273Z,1069.4
2018-06-27T08:47:23.264Z,1069.33
2018-06-27T08:48:23.271Z,1069.42
2018-06-27T08:49:23.279Z,1069.13
2018-06-27T08:50:23.268Z,1069.37
2018-06-27T08:51:23.279Z,1069.2
2018-06-27T08:52:23.278Z,1069.22
2018-06-27T08:53:23.285Z,1069.33
2018-06-27T08:54:23.286Z,1069.4
2018-06-27T08:55:23.307Z,1069.11
2018-06-27T08:56:23.303Z,1069.01
2018-06-27T08:57:23.280Z,1068.59
2018-06-27T08:58:23.294Z,1068.58
2018-06-27T08:59:23.313Z,1068.71
2018-06-27T09:00:23.322Z,1068.56
2018-06-27T09:01:23.295Z,1068.31
2018-06-27T09:02:23.298Z,1068.24
2018-06-27T09:03:23.300Z,1068.26
2018-06-27T09:04:23.307Z,1068.36
2018-06-27T09:05:23.308Z,1068.24
2018-06-27T09:06:23.294Z,1068.23
2018-06-27T09:07:23.306Z,1068.16
2018-06-27T09:08:23.334Z,1068.24
2018-06-27T09:09:23.308Z,1067.99
2018-06-27T09:10:23.314Z,1068.16
2018-06-27T09:11:23.301Z,1068
2018-06-27T09:12:23.355Z,1068.06
2018-06-27T09:13:23.309Z,1068.38
2018-06-27T09:14:23.314Z,1068.07
2018-06-27T09:15:23.353Z,1068.02
2018-06-27T09:16:23.356Z,1068.04
2018-06-27T09:17:23.313Z,1067.84
2018-06-27T09:18:23.315Z,1067.99
2018-06-27T09:19:23.353Z,1067.77
2018-06-27T09:20:23.328Z,1067.47
2018-06-27T09:21:23.335Z,1067.56
2018-06-27T09:22:23.344Z,1067.45
2018-06-27T09:23:23.326Z,1067.39
2018-06-27T09:24:23.329Z,1067.43
2018-06-27T09:25:23.342Z,1067.15
2018-06-27T09:26:23.374Z,1067.13
2018-06-27T09:27:23.322Z,1066.99
2018-06-27T09:28:23.328Z,1067.01
2018-06-27T09:29:23.336Z,1066.92
2018-06-27T09:30:23.349Z,1066.88
2018-06-27T09:31:23.355Z,1066.76
2018-06-27T09:32:23.361Z,1066.87
2018-06-27T09:33:23.350Z,1066.71
2018-06-27T09:34:23.353Z,1066.47
2018-06-27T09:35:23.357Z,1066.32
2018-06-27T09:36:23.388Z,1065.98
2018-06-27T09:37:23.363Z,1065.9
2018-06-27T09:38:23.369Z,1065.89
2018-06-27T09:39:23.379Z,1065.84
2018-06-27T09:40:23.391Z,1065.72
2018-06-27T09:41:23.366Z,1065.71
2018-06-27T09:42:23.352Z,1065.52
2018-06-27T09:43:23.382Z,1065.46
2018-06-27T09:44:23.371Z,1065.26
2018-06-27T09:45:23.380Z,1065.25
2018-06-27T09:46:23.397Z,1065.1
2018-06-27T09:47:23.409Z,1065.19
2018-06-27T09:48:23.369Z,1064.65
2018-06-27T09:49:23.366Z,1064.99
2018-06-27T09:50:23.439Z,1064.84
2018-06-27T09:51:23.383Z,1064.89
2018-06-27T09:52:23.388Z,1064.99
2018-06-27T09:53:23.380Z,1064.79
2018-06-27T09:54:23.373Z,1064.86
2018-06-27T09:55:23.388Z,1064.77
2018-06-27T09:56:23.398Z,1064.81
2018-06-27T09:57:23.396Z,1064.5
2018-06-27T09:58:23.400Z,1064.56
2018-06-27T09:59:23.385Z,1064.34
2018-06-27T10:00:23.392Z,1064.1
2018-06-27T10:01:23.426Z,1063.98
2018-06-27T10:02:23.402Z,1063.84
2018-06-27T10:03:39.891Z,1063.52
2018-06-27T10:04:39.885Z,1063.51
2018-06-27T10:05:39.905Z,1063.24
2018-06-27T10:06:39.896Z,1063.26
2018-06-27T10:07:39.953Z,1063.35
2018-06-27T10:08:39.880Z,1063.16
2018-06-27T10:09:39.884Z,1063.07
2018-06-27T10:10:39.916Z,1062.98
2018-06-27T10:11:39.919Z,1062.9
2018-06-27T10:12:39.900Z,1062.64
2018-06-27T10:13:39.887Z,1062.43
2018-06-27T10:14:39.919Z,1062.2
2018-06-27T10:15:39.921Z,1062.41
2018-06-27T10:16:39.902Z,1062.22
2018-06-27T10:17:39.886Z,1061.98
2018-06-27T10:18:39.895Z,1061.73
2018-06-27T10:19:39.906Z,1061.95
2018-06-27T10:20:39.916Z,1061.74
2018-06-27T10:21:39.935Z,1061.65
2018-06-27T10:22:39.942Z,1061.62
2018-06-27T10:23:39.927Z,1061.7
2018-06-27T10:24:39.901Z,1061.56
2018-06-27T10:25:39.909Z,1061.27
2018-06-27T10:26:39.923Z,1061.58
2018-06-27T10:27:39.948Z,1061.27
2018-06-27T10:28:39.908Z,1061.36
2018-06-27T10:29:39.907Z,1061.32
2018-06-27T10:30:39.942Z,1061.02
2018-06-27T10:31:39.948Z,1061.16
2018-06-27T10:32:39.926Z,1061.1
2018-06-27T10:33:39.941Z,1061.12
2018-06-27T10:34:39.955Z,1060.96
2018-06-27T10:35:39.961Z,1060.92
2018-06-27T10:36:39.932Z,1060.85
2018-06-27T10:37:39.940Z,1060.91
2018-06-27T10:38:39.968Z,1060.83
2018-06-27T10:39:39.950Z,1060.95
2018-06-27T10:40:39.936Z,1060.82
2018-06-27T10:41:39.952Z,1060.61
2018-06-27T10:42:39.984Z,1060.74
2018-06-27T10:43:40.285Z,1060.76
2018-06-27T10:44:39.963Z,1060.44
2018-06-27T10:45:39.935Z,1060.73
2018-06-27T10:46:39.967Z,1060.7
2018-06-27T10:47:39.954Z,1060.54
2018-06-27T10:48:39.985Z,1060.67
2018-06-27T10:49:39.938Z,1060.65
2018-06-27T10:50:39.955Z,1060.45
2018-06-27T10:51:39.953Z,1060.6
2018-06-27T10:52:39.990Z,1060.53
2018-06-27T10:53:39.971Z,1060.38
2018-06-27T10:54:39.966Z,1060.3
2018-06-27T10:55:39.965Z,1060.34
2018-06-27T10:56:39.988Z,1060.06
2018-06-27T10:57:39.988Z,1060.19
2018-06-27T10:58:39.972Z,1060.25
2018-06-27T10:59:40.013Z,1060.11
2018-06-27T11:00:39.974Z,1060.24
2018-06-27T11:01:40.008Z,1059.9
2018-06-27T11:02:39.980Z,1059.71
2018-06-27T11:03:39.983Z,1059.74
2018-06-27T11:04:39.984Z,1059.78
2018-06-27T11:05:39.991Z,1059.61
2018-06-27T11:06:39.970Z,1059.82
2018-06-27T11:07:40.003Z,1059.54
2018-06-27T11:08:40.016Z,1059.4
2018-06-27T11:09:40.096Z,1059.46
2018-06-27T11:10:39.986Z,1059.23
2018-06-27T11:11:40.007Z,1059.17
2018-06-27T11:12:39.984Z,1059.32
2018-06-27T11:13:40.000Z,1059.32
2018-06-27T11:14:40.010Z,1059.21
2018-06-27T11:15:40.019Z,1059.16
2018-06-27T11:16:40.010Z,1059.21
2018-06-27T11:17:40.019Z,1059.06
2018-06-27T11:18:39.995Z,1059.03
2018-06-27T11:19:40.069Z,1058.95
2018-06-27T11:20:40.039Z,1058.7
2018-06-27T11:21:40.018Z,1058.65
2018-06-27T11:22:40.008Z,1058.68
2018-06-27T11:23:40.016Z,1058.66
2018-06-27T11:24:40.021Z,1058.53
2018-06-27T11:25:40.035Z,1058.13
2018-06-27T11:26:40.030Z,1058.23
2018-06-27T11:27:40.049Z,1058.2
2018-06-27T11:28:40.013Z,1058.09
2018-06-27T11:29:40.048Z,1058.25
2018-06-27T11:30:40.037Z,1058.08
2018-06-27T11:31:40.065Z,1058.25
2018-06-27T11:32:40.095Z,1058.1
2018-06-27T11:33:40.030Z,1058.1
2018-06-27T11:34:40.063Z,1057.92
2018-06-27T11:35:40.042Z,1057.92
2018-06-27T11:36:40.040Z,1057.93
2018-06-27T11:37:40.070Z,1057.77
2018-06-27T11:38:40.129Z,1057.74
2018-06-27T11:39:40.098Z,1057.78
2018-06-27T11:40:40.068Z,1057.75
2018-06-27T11:41:40.056Z,1057.75
2018-06-27T11:42:40.077Z,1057.77
2018-06-27T11:43:40.062Z,1057.74
2018-06-27T11:44:40.044Z,1057.69
2018-06-27T11:45:40.071Z,1057.81
2018-06-27T11:46:40.057Z,1057.76
2018-06-27T11:47:40.058Z,1057.63
2018-06-27T11:48:40.069Z,1057.62
2018-06-27T11:49:40.072Z,1057.54
2018-06-27T11:50:40.063Z,1057.67
2018-06-27T11:51:40.060Z,1057.64
2018-06-27T11:52:40.073Z,1057.8
2018-06-27T11:53:40.088Z,1057.32
2018-06-27T11:54:40.060Z,1057.56
2018-06-27T11:55:40.062Z,1057.43
2018-06-27T11:56:40.072Z,1057.45
2018-06-27T11:57:40.076Z,1057.38
2018-06-27T11:58:40.111Z,1057.43
2018-06-27T11:59:40.093Z,1057.16
2018-06-27T12:00:40.066Z,1057.05
2018-06-27T12:01:40.083Z,1057.62
2018-06-27T12:02:40.106Z,1057.24
2018-06-27T12:03:40.096Z,1057.26
2018-06-27T12:04:40.099Z,1057.26
2018-06-27T12:05:40.100Z,1057.22
2018-06-27T12:06:40.096Z,1057.11
2018-06-27T12:07:40.098Z,1057.12
2018-06-27T12:08:40.101Z,1057.18
2018-06-27T12:09:40.108Z,1057.39
2018-06-27T12:10:40.109Z,1057.2
2018-06-27T12:11:40.099Z,1057.24
2018-06-27T12:12:40.120Z,1057.21
2018-06-27T12:13:40.141Z,1057.11
2018-06-27T12:14:40.175Z,1057.13
2018-06-27T12:15:40.096Z,1057.07
2018-06-27T12:16:40.096Z,1056.72
2018-06-27T12:17:40.101Z,1057
2018-06-27T12:18:40.119Z,1056.92
2018-06-27T12:19:40.111Z,1056.87
2018-06-27T12:20:40.114Z,1057.13
2018-06-27T12:21:40.101Z,1056.65
2018-06-27T12:22:40.163Z,1056.85
2018-06-27T12:23:40.131Z,1056.67
2018-06-27T12:24:40.144Z,1056.8
2018-06-27T12:25:40.125Z,1056.67
2018-06-27T12:26:40.109Z,1056.56
2018-06-27T12:27:40.121Z,1056.56
2018-06-27T12:28:40.159Z,1056.57
2018-06-27T12:29:40.139Z,1056.36
2018-06-27T12:30:40.138Z,1056.86
2018-06-27T12:31:40.188Z,1056.5
2018-06-27T12:32:40.126Z,1056.69
2018-06-27T12:33:40.130Z,1056.5
2018-06-27T12:34:40.145Z,1056.5
2018-06-27T12:35:40.143Z,1056.51
2018-06-27T12:36:40.163Z,1056.27